sensor_id;sensor_type;location;lat;lon;timestamp;P1;durP1;ratioP1;P2;durP2;ratioP2
10230;SDS011;62604;49.432;8.680;2022-11-12T09:42:50;15.50;;;14.10;;
10230;SDS011;62604;49.432;8.680;2022-11-12T09:45:21;14.30;;;13.10;;
10230;SDS011;62604;49.432;8.680;2022-11-12T09:47:53;14.20;;;13.00;;
10230;SDS011;62604;49.432;8.680;2022-11-12T09:50:26;14.33;;;13.07;;
10230;SDS011;62604;49.432;8.680;2022-11-12T09:52:58;14.37;;;13.10;;
10230;SDS011;62604;49.432;8.680;2022-11-12T09:55:29;14.83;;;13.30;;
10230;SDS011;62604;49.432;8.680;2022-11-12T09:58:00;12.87;;;11.87;;
10230;SDS011;62604;49.432;8.680;2022-11-12T10:00:31;13.77;;;12.67;;
10230;SDS011;62604;49.432;8.680;2022-11-12T10:02:59;13.73;;;12.47;;
10230;SDS011;62604;49.432;8.680;2022-11-12T10:05:35;13.57;;;12.47;;
10230;SDS011;62604;49.432;8.680;2022-11-12T10:08:21;18.57;;;16.67;;
10230;SDS011;62604;49.432;8.680;2022-11-12T10:11:01;14.13;;;12.90;;
10230;SDS011;62604;49.432;8.680;2022-11-12T10:13:44;15.37;;;13.93;;
10230;SDS011;62604;49.432;8.680;2022-11-12T10:16:23;14.90;;;12.93;;
10230;SDS011;62604;49.432;8.680;2022-11-12T10:19:20;20.43;;;16.77;;
10230;SDS011;62604;49.432;8.680;2022-11-12T10:22:04;12.97;;;11.87;;
10230;SDS011;62604;49.432;8.680;2022-11-12T10:24:40;13.47;;;12.37;;
10230;SDS011;62604;49.432;8.680;2022-11-12T10:27:13;15.20;;;13.70;;
10230;SDS011;62604;49.432;8.680;2022-11-12T10:29:48;14.87;;;13.53;;
10230;SDS011;62604;49.432;8.680;2022-11-12T10:32:19;18.50;;;14.90;;
10230;SDS011;62604;49.432;8.680;2022-11-12T10:34:46;13.90;;;12.60;;
10230;SDS011;62604;49.432;8.680;2022-11-12T10:37:16;15.63;;;14.13;;
10230;SDS011;62604;49.432;8.680;2022-11-12T10:39:50;13.50;;;12.40;;
10230;SDS011;62604;49.432;8.680;2022-11-12T10:42:18;14.03;;;12.77;;
10230;SDS011;62604;49.432;8.680;2022-11-12T10:44:47;15.70;;;14.20;;
10230;SDS011;62604;49.432;8.680;2022-11-12T10:47:20;13.93;;;12.73;;
10230;SDS011;62604;49.432;8.680;2022-11-12T10:50:01;13.40;;;12.30;;
10230;SDS011;62604;49.432;8.680;2022-11-12T10:52:40;14.20;;;12.80;;
10230;SDS011;62604;49.432;8.680;2022-11-12T10:55:20;13.73;;;12.53;;
10230;SDS011;62604;49.432;8.680;2022-11-12T10:58:11;13.60;;;12.40;;
10230;SDS011;62604;49.432;8.680;2022-11-12T11:01:04;12.70;;;11.70;;
10230;SDS011;62604;49.432;8.680;2022-11-12T11:03:43;13.87;;;12.67;;
10230;SDS011;62604;49.432;8.680;2022-11-12T11:06:19;13.37;;;12.37;;
10230;SDS011;62604;49.432;8.680;2022-11-12T11:08:51;13.33;;;12.23;;
10230;SDS011;62604;49.432;8.680;2022-11-12T11:11:47;13.50;;;12.30;;
10230;SDS011;62604;49.432;8.680;2022-11-12T11:14:23;13.63;;;12.43;;
10230;SDS011;62604;49.432;8.680;2022-11-12T11:17:02;14.50;;;13.20;;
10230;SDS011;62604;49.432;8.680;2022-11-12T11:19:35;13.80;;;12.50;;
10230;SDS011;62604;49.432;8.680;2022-11-12T11:25:06;13.87;;;12.50;;
10230;SDS011;62604;49.432;8.680;2022-11-12T11:27:45;13.80;;;12.50;;
10230;SDS011;62604;49.432;8.680;2022-11-12T11:30:24;13.60;;;12.47;;
10230;SDS011;62604;49.432;8.680;2022-11-12T11:33:00;13.83;;;12.53;;
10230;SDS011;62604;49.432;8.680;2022-11-12T11:35:39;13.93;;;12.60;;
10230;SDS011;62604;49.432;8.680;2022-11-12T11:38:31;13.47;;;12.27;;
10230;SDS011;62604;49.432;8.680;2022-11-12T11:41:12;13.70;;;12.50;;
10230;SDS011;62604;49.432;8.680;2022-11-12T11:43:52;12.97;;;11.93;;
10230;SDS011;62604;49.432;8.680;2022-11-12T11:46:42;13.27;;;12.07;;
10230;SDS011;62604;49.432;8.680;2022-11-12T11:49:25;13.00;;;11.90;;
10230;SDS011;62604;49.432;8.680;2022-11-12T11:52:05;13.80;;;12.60;;
10230;SDS011;62604;49.432;8.680;2022-11-12T11:54:44;13.40;;;12.23;;
10230;SDS011;62604;49.432;8.680;2022-11-12T11:57:22;14.07;;;12.93;;
10230;SDS011;62604;49.432;8.680;2022-11-12T12:00:00;13.40;;;12.30;;
10230;SDS011;62604;49.432;8.680;2022-11-12T12:02:40;13.23;;;12.03;;
10230;SDS011;62604;49.432;8.680;2022-11-12T12:05:27;13.20;;;12.17;;
10230;SDS011;62604;49.432;8.680;2022-11-12T12:08:04;13.30;;;12.10;;
10230;SDS011;62604;49.432;8.680;2022-11-12T12:10:40;13.60;;;12.50;;
10230;SDS011;62604;49.432;8.680;2022-11-12T12:13:19;13.17;;;12.07;;
10230;SDS011;62604;49.432;8.680;2022-11-12T12:16:07;13.00;;;11.90;;
10230;SDS011;62604;49.432;8.680;2022-11-12T12:18:50;12.73;;;11.63;;
10230;SDS011;62604;49.432;8.680;2022-11-12T12:21:24;13.33;;;12.13;;
10230;SDS011;62604;49.432;8.680;2022-11-12T12:23:57;13.37;;;12.17;;
10230;SDS011;62604;49.432;8.680;2022-11-12T12:26:29;13.17;;;12.10;;
10230;SDS011;62604;49.432;8.680;2022-11-12T12:29:04;12.57;;;11.57;;
10230;SDS011;62604;49.432;8.680;2022-11-12T12:31:39;12.63;;;11.63;;
10230;SDS011;62604;49.432;8.680;2022-11-12T12:34:12;12.80;;;11.77;;
10230;SDS011;62604;49.432;8.680;2022-11-12T12:36:46;12.87;;;11.77;;
10230;SDS011;62604;49.432;8.680;2022-11-12T12:39:21;12.97;;;11.97;;
10230;SDS011;62604;49.432;8.680;2022-11-12T12:41:52;12.90;;;11.90;;
10230;SDS011;62604;49.432;8.680;2022-11-12T12:44:23;13.37;;;12.23;;
10230;SDS011;62604;49.432;8.680;2022-11-12T12:47:09;13.43;;;12.33;;
10230;SDS011;62604;49.432;8.680;2022-11-12T12:49:39;13.17;;;12.17;;
10230;SDS011;62604;49.432;8.680;2022-11-12T12:52:11;13.33;;;12.23;;
10230;SDS011;62604;49.432;8.680;2022-11-12T12:54:55;13.40;;;12.30;;
10230;SDS011;62604;49.432;8.680;2022-11-12T12:57:31;12.77;;;11.73;;
10230;SDS011;62604;49.432;8.680;2022-11-12T13:02:52;13.10;;;11.90;;
10230;SDS011;62604;49.432;8.680;2022-11-12T13:05:21;12.97;;;11.87;;
10230;SDS011;62604;49.432;8.680;2022-11-12T13:07:52;13.77;;;12.57;;
10230;SDS011;62604;49.432;8.680;2022-11-12T13:13:30;13.47;;;12.37;;
10230;SDS011;62604;49.432;8.680;2022-11-12T13:16:00;13.93;;;12.73;;
10230;SDS011;62604;49.432;8.680;2022-11-12T13:21:28;13.53;;;12.33;;
10230;SDS011;62604;49.432;8.680;2022-11-12T13:23:58;14.30;;;12.83;;
10230;SDS011;62604;49.432;8.680;2022-11-12T13:37:56;13.47;;;12.17;;
10230;SDS011;62604;49.432;8.680;2022-11-12T13:40:37;14.40;;;13.00;;
10230;SDS011;62604;49.432;8.680;2022-11-12T13:43:10;14.60;;;13.20;;
10230;SDS011;62604;49.432;8.680;2022-11-12T13:45:44;14.37;;;13.07;;
10230;SDS011;62604;49.432;8.680;2022-11-12T13:48:19;14.87;;;13.47;;
10230;SDS011;62604;49.432;8.680;2022-11-12T13:50:51;14.77;;;13.37;;
10230;SDS011;62604;49.432;8.680;2022-11-12T13:53:24;14.23;;;12.73;;
10230;SDS011;62604;49.432;8.680;2022-11-12T13:55:54;14.30;;;12.97;;
10230;SDS011;62604;49.432;8.680;2022-11-12T13:58:28;14.73;;;13.33;;
10230;SDS011;62604;49.432;8.680;2022-11-12T14:00:57;13.57;;;12.37;;
10230;SDS011;62604;49.432;8.680;2022-11-12T14:03:27;14.27;;;12.90;;
10230;SDS011;62604;49.432;8.680;2022-11-12T14:05:58;14.23;;;12.83;;
10230;SDS011;62604;49.432;8.680;2022-11-12T14:08:33;13.60;;;12.47;;
10230;SDS011;62604;49.432;8.680;2022-11-12T14:14:32;14.97;;;13.57;;
10230;SDS011;62604;49.432;8.680;2022-11-12T14:17:15;14.43;;;12.93;;
10230;SDS011;62604;49.432;8.680;2022-11-12T14:19:56;15.00;;;13.50;;
10230;SDS011;62604;49.432;8.680;2022-11-12T14:22:37;14.23;;;12.93;;
10230;SDS011;62604;49.432;8.680;2022-11-12T14:25:10;14.37;;;13.07;;
10230;SDS011;62604;49.432;8.680;2022-11-12T14:27:41;14.17;;;12.87;;
10230;SDS011;62604;49.432;8.680;2022-11-12T14:32:47;15.17;;;13.57;;
10230;SDS011;62604;49.432;8.680;2022-11-12T14:35:18;16.10;;;14.50;;
10230;SDS011;62604;49.432;8.680;2022-11-12T14:38:04;15.33;;;13.67;;
10230;SDS011;62604;49.432;8.680;2022-11-12T14:40:41;14.97;;;13.47;;
10230;SDS011;62604;49.432;8.680;2022-11-12T14:43:22;15.33;;;13.77;;
10230;SDS011;62604;49.432;8.680;2022-11-12T14:45:55;14.83;;;13.47;;
10230;SDS011;62604;49.432;8.680;2022-11-12T14:48:25;13.90;;;12.60;;
10230;SDS011;62604;49.432;8.680;2022-11-12T14:50:54;15.20;;;13.47;;
10230;SDS011;62604;49.432;8.680;2022-11-12T14:53:28;15.13;;;13.67;;
10230;SDS011;62604;49.432;8.680;2022-11-12T14:55:58;15.67;;;13.77;;
10230;SDS011;62604;49.432;8.680;2022-11-12T14:58:45;15.77;;;13.90;;
10230;SDS011;62604;49.432;8.680;2022-11-12T15:01:20;15.37;;;13.77;;
10230;SDS011;62604;49.432;8.680;2022-11-12T15:03:50;15.53;;;13.90;;
10230;SDS011;62604;49.432;8.680;2022-11-12T15:06:29;16.67;;;14.57;;
10230;SDS011;62604;49.432;8.680;2022-11-12T15:08:59;15.80;;;14.20;;
10230;SDS011;62604;49.432;8.680;2022-11-12T15:11:27;15.80;;;13.73;;
10230;SDS011;62604;49.432;8.680;2022-11-12T15:13:59;16.37;;;14.63;;
10230;SDS011;62604;49.432;8.680;2022-11-12T15:16:30;16.10;;;13.90;;
10230;SDS011;62604;49.432;8.680;2022-11-12T15:19:02;15.70;;;13.90;;
10230;SDS011;62604;49.432;8.680;2022-11-12T15:21:34;15.73;;;13.87;;
10230;SDS011;62604;49.432;8.680;2022-11-12T15:24:06;16.37;;;14.67;;
10230;SDS011;62604;49.432;8.680;2022-11-12T15:26:44;17.03;;;15.30;;
10230;SDS011;62604;49.432;8.680;2022-11-12T15:29:21;16.60;;;14.87;;
10230;SDS011;62604;49.432;8.680;2022-11-12T15:32:31;16.03;;;14.43;;
10230;SDS011;62604;49.432;8.680;2022-11-12T15:35:00;16.70;;;15.00;;
10230;SDS011;62604;49.432;8.680;2022-11-12T15:37:28;23.40;;;17.40;;
10230;SDS011;62604;49.432;8.680;2022-11-12T15:40:02;21.40;;;17.33;;
10230;SDS011;62604;49.432;8.680;2022-11-12T15:42:37;18.07;;;14.53;;
10230;SDS011;62604;49.432;8.680;2022-11-12T15:45:09;18.40;;;15.70;;
10230;SDS011;62604;49.432;8.680;2022-11-12T15:47:41;15.90;;;14.37;;
10230;SDS011;62604;49.432;8.680;2022-11-12T15:50:13;15.90;;;14.30;;
10230;SDS011;62604;49.432;8.680;2022-11-12T15:52:44;16.43;;;14.67;;
10230;SDS011;62604;49.432;8.680;2022-11-12T15:55:12;19.20;;;14.10;;
10230;SDS011;62604;49.432;8.680;2022-11-12T15:57:40;16.53;;;14.77;;
